sensor_id;sensor_type;location;lat;lon;timestamp;pressure;altitude;pressure_sealevel;temperature
15607;BMP180;7865;50.918;4.510;2022-12-29T00:01:58;99584.00;;;11.20
15607;BMP180;7865;50.918;4.510;2022-12-29T00:07:00;99585.00;;;11.10
15607;BMP180;7865;50.918;4.510;2022-12-29T00:12:03;99574.00;;;11.20
15607;BMP180;7865;50.918;4.510;2022-12-29T00:17:05;99553.00;;;11.20
15607;BMP180;7865;50.918;4.510;2022-12-29T00:22:09;99570.00;;;11.20
15607;BMP180;7865;50.918;4.510;2022-12-29T00:27:30;99538.00;;;11.20
15607;BMP180;7865;50.918;4.510;2022-12-29T00:32:51;99538.00;;;11.20
15607;BMP180;7865;50.918;4.510;2022-12-29T00:38:12;99548.00;;;11.20
15607;BMP180;7865;50.918;4.510;2022-12-29T00:43:33;99547.00;;;11.20
15607;BMP180;7865;50.918;4.510;2022-12-29T00:48:53;99533.00;;;11.30
15607;BMP180;7865;50.918;4.510;2022-12-29T00:54:15;99528.00;;;11.30
15607;BMP180;7865;50.918;4.510;2022-12-29T00:59:19;99540.00;;;11.40
15607;BMP180;7865;50.918;4.510;2022-12-29T01:04:23;99540.00;;;11.40
15607;BMP180;7865;50.918;4.510;2022-12-29T01:09:25;99529.00;;;11.40
15607;BMP180;7865;50.918;4.510;2022-12-29T01:14:46;99556.00;;;11.40
15607;BMP180;7865;50.918;4.510;2022-12-29T01:19:48;99537.00;;;11.40
15607;BMP180;7865;50.918;4.510;2022-12-29T01:24:50;99547.00;;;11.20
15607;BMP180;7865;50.918;4.510;2022-12-29T01:29:51;99549.00;;;11.00
15607;BMP180;7865;50.918;4.510;2022-12-29T01:34:53;99546.00;;;10.80
15607;BMP180;7865;50.918;4.510;2022-12-29T01:39:55;99552.00;;;10.80
15607;BMP180;7865;50.918;4.510;2022-12-29T01:45:00;99552.00;;;10.60
15607;BMP180;7865;50.918;4.510;2022-12-29T01:50:28;99543.00;;;10.60
15607;BMP180;7865;50.918;4.510;2022-12-29T01:55:35;99554.00;;;10.60
15607;BMP180;7865;50.918;4.510;2022-12-29T02:00:37;99545.00;;;10.60
15607;BMP180;7865;50.918;4.510;2022-12-29T02:05:59;99548.00;;;10.50
15607;BMP180;7865;50.918;4.510;2022-12-29T02:11:03;99551.00;;;10.50
15607;BMP180;7865;50.918;4.510;2022-12-29T02:16:33;99553.00;;;10.40
15607;BMP180;7865;50.918;4.510;2022-12-29T02:26:59;99568.00;;;9.90
15607;BMP180;7865;50.918;4.510;2022-12-29T02:42:55;99534.00;;;9.50
15607;BMP180;7865;50.918;4.510;2022-12-29T02:48:05;99534.00;;;9.40
15607;BMP180;7865;50.918;4.510;2022-12-29T02:53:15;99515.00;;;9.30
15607;BMP180;7865;50.918;4.510;2022-12-29T02:58:22;99505.00;;;9.30
15607;BMP180;7865;50.918;4.510;2022-12-29T03:03:36;99513.00;;;9.20
15607;BMP180;7865;50.918;4.510;2022-12-29T03:14:34;99544.00;;;9.20
15607;BMP180;7865;50.918;4.510;2022-12-29T03:20:03;99524.00;;;9.00
15607;BMP180;7865;50.918;4.510;2022-12-29T03:25:12;99524.00;;;8.90
15607;BMP180;7865;50.918;4.510;2022-12-29T03:30:16;99504.00;;;8.80
15607;BMP180;7865;50.918;4.510;2022-12-29T03:35:21;99509.00;;;8.70
15607;BMP180;7865;50.918;4.510;2022-12-29T03:40:25;99511.00;;;8.80
15607;BMP180;7865;50.918;4.510;2022-12-29T03:45:28;99515.00;;;8.90
15607;BMP180;7865;50.918;4.510;2022-12-29T03:50:30;99517.00;;;9.00
15607;BMP180;7865;50.918;4.510;2022-12-29T03:55:32;99532.00;;;9.20
15607;BMP180;7865;50.918;4.510;2022-12-29T04:00:34;99523.00;;;9.20
15607;BMP180;7865;50.918;4.510;2022-12-29T04:05:37;99526.00;;;9.20
15607;BMP180;7865;50.918;4.510;2022-12-29T04:10:39;99537.00;;;9.20
15607;BMP180;7865;50.918;4.510;2022-12-29T04:15:43;99554.00;;;9.20
15607;BMP180;7865;50.918;4.510;2022-12-29T04:20:46;99548.00;;;9.10
15607;BMP180;7865;50.918;4.510;2022-12-29T04:26:06;99556.00;;;9.00
15607;BMP180;7865;50.918;4.510;2022-12-29T04:31:13;99552.00;;;9.00
15607;BMP180;7865;50.918;4.510;2022-12-29T04:36:17;99576.00;;;9.00
15607;BMP180;7865;50.918;4.510;2022-12-29T04:41:19;99574.00;;;9.10
15607;BMP180;7865;50.918;4.510;2022-12-29T04:46:22;99579.00;;;9.20
15607;BMP180;7865;50.918;4.510;2022-12-29T04:51:32;99588.00;;;9.30
15607;BMP180;7865;50.918;4.510;2022-12-29T04:56:34;99585.00;;;9.40
15607;BMP180;7865;50.918;4.510;2022-12-29T05:01:36;99588.00;;;9.30
15607;BMP180;7865;50.918;4.510;2022-12-29T05:06:38;99585.00;;;9.30
15607;BMP180;7865;50.918;4.510;2022-12-29T05:11:41;99582.00;;;9.40
15607;BMP180;7865;50.918;4.510;2022-12-29T05:16:44;99575.00;;;9.50
15607;BMP180;7865;50.918;4.510;2022-12-29T05:21:46;99589.00;;;9.50
15607;BMP180;7865;50.918;4.510;2022-12-29T05:26:48;99600.00;;;9.60
15607;BMP180;7865;50.918;4.510;2022-12-29T05:32:07;99590.00;;;9.70
15607;BMP180;7865;50.918;4.510;2022-12-29T05:37:09;99568.00;;;9.70
15607;BMP180;7865;50.918;4.510;2022-12-29T05:42:14;99573.00;;;9.80
15607;BMP180;7865;50.918;4.510;2022-12-29T05:47:26;99585.00;;;9.80
15607;BMP180;7865;50.918;4.510;2022-12-29T05:52:43;99602.00;;;9.80
15607;BMP180;7865;50.918;4.510;2022-12-29T05:57:46;99599.00;;;9.70
15607;BMP180;7865;50.918;4.510;2022-12-29T06:02:50;99596.00;;;9.70
15607;BMP180;7865;50.918;4.510;2022-12-29T06:07:52;99610.00;;;9.60
15607;BMP180;7865;50.918;4.510;2022-12-29T06:12:54;99613.00;;;9.60
15607;BMP180;7865;50.918;4.510;2022-12-29T06:17:56;99617.00;;;9.50
15607;BMP180;7865;50.918;4.510;2022-12-29T06:22:59;99623.00;;;9.50
15607;BMP180;7865;50.918;4.510;2022-12-29T06:28:02;99626.00;;;9.50
15607;BMP180;7865;50.918;4.510;2022-12-29T06:33:04;99623.00;;;9.40
15607;BMP180;7865;50.918;4.510;2022-12-29T06:38:06;99644.00;;;9.40
15607;BMP180;7865;50.918;4.510;2022-12-29T06:43:08;99647.00;;;9.50
15607;BMP180;7865;50.918;4.510;2022-12-29T06:48:17;99637.00;;;9.50
15607;BMP180;7865;50.918;4.510;2022-12-29T06:53:19;99646.00;;;9.70
15607;BMP180;7865;50.918;4.510;2022-12-29T06:58:21;99643.00;;;9.70
15607;BMP180;7865;50.918;4.510;2022-12-29T07:03:22;99646.00;;;9.70
15607;BMP180;7865;50.918;4.510;2022-12-29T07:08:24;99662.00;;;9.70
15607;BMP180;7865;50.918;4.510;2022-12-29T07:13:26;99678.00;;;9.60
15607;BMP180;7865;50.918;4.510;2022-12-29T07:18:28;99693.00;;;9.60
15607;BMP180;7865;50.918;4.510;2022-12-29T07:23:30;99687.00;;;9.60
15607;BMP180;7865;50.918;4.510;2022-12-29T07:28:34;99676.00;;;9.60
15607;BMP180;7865;50.918;4.510;2022-12-29T07:33:36;99664.00;;;9.70
15607;BMP180;7865;50.918;4.510;2022-12-29T07:38:38;99696.00;;;9.70
15607;BMP180;7865;50.918;4.510;2022-12-29T07:43:40;99691.00;;;9.80
15607;BMP180;7865;50.918;4.510;2022-12-29T07:48:59;99699.00;;;9.90
15607;BMP180;7865;50.918;4.510;2022-12-29T07:54:01;99686.00;;;9.90
15607;BMP180;7865;50.918;4.510;2022-12-29T07:59:03;99699.00;;;9.90
15607;BMP180;7865;50.918;4.510;2022-12-29T08:04:08;99705.00;;;9.90
15607;BMP180;7865;50.918;4.510;2022-12-29T08:09:10;99716.00;;;10.00
15607;BMP180;7865;50.918;4.510;2022-12-29T08:14:22;99716.00;;;10.00
15607;BMP180;7865;50.918;4.510;2022-12-29T08:19:24;99699.00;;;10.00
15607;BMP180;7865;50.918;4.510;2022-12-29T08:24:26;99706.00;;;10.10
15607;BMP180;7865;50.918;4.510;2022-12-29T08:29:28;99724.00;;;10.10
15607;BMP180;7865;50.918;4.510;2022-12-29T08:34:31;99741.00;;;10.10
15607;BMP180;7865;50.918;4.510;2022-12-29T08:39:33;99739.00;;;10.10
15607;BMP180;7865;50.918;4.510;2022-12-29T08:44:35;99724.00;;;10.10
15607;BMP180;7865;50.918;4.510;2022-12-29T08:49:37;99730.00;;;10.20
15607;BMP180;7865;50.918;4.510;2022-12-29T08:54:39;99748.00;;;10.40
15607;BMP180;7865;50.918;4.510;2022-12-29T08:59:41;99749.00;;;10.40
15607;BMP180;7865;50.918;4.510;2022-12-29T09:04:45;99761.00;;;10.40
15607;BMP180;7865;50.918;4.510;2022-12-29T09:09:47;99781.00;;;10.40
15607;BMP180;7865;50.918;4.510;2022-12-29T09:14:49;99777.00;;;10.50
15607;BMP180;7865;50.918;4.510;2022-12-29T09:19:51;99797.00;;;10.30
15607;BMP180;7865;50.918;4.510;2022-12-29T09:24:52;99766.00;;;10.10
15607;BMP180;7865;50.918;4.510;2022-12-29T09:29:55;99822.00;;;10.10
15607;BMP180;7865;50.918;4.510;2022-12-29T09:34:57;99838.00;;;10.20
15607;BMP180;7865;50.918;4.510;2022-12-29T09:39:59;99845.00;;;10.00
15607;BMP180;7865;50.918;4.510;2022-12-29T09:45:13;99870.00;;;10.00
15607;BMP180;7865;50.918;4.510;2022-12-29T09:55:33;99865.00;;;9.90
15607;BMP180;7865;50.918;4.510;2022-12-29T10:00:46;99870.00;;;10.10
15607;BMP180;7865;50.918;4.510;2022-12-29T10:06:15;99864.00;;;10.70
15607;BMP180;7865;50.918;4.510;2022-12-29T10:11:38;99871.00;;;11.60
15607;BMP180;7865;50.918;4.510;2022-12-29T10:27:39;99889.00;;;11.00
15607;BMP180;7865;50.918;4.510;2022-12-29T10:38:12;99901.00;;;11.70
15607;BMP180;7865;50.918;4.510;2022-12-29T10:43:34;99914.00;;;12.20
15607;BMP180;7865;50.918;4.510;2022-12-29T10:48:38;99912.00;;;12.20
15607;BMP180;7865;50.918;4.510;2022-12-29T10:53:44;99916.00;;;12.30
15607;BMP180;7865;50.918;4.510;2022-12-29T10:58:48;99932.00;;;12.50
15607;BMP180;7865;50.918;4.510;2022-12-29T11:04:02;99932.00;;;12.60
15607;BMP180;7865;50.918;4.510;2022-12-29T11:09:26;99931.00;;;13.00
15607;BMP180;7865;50.918;4.510;2022-12-29T11:14:43;99959.00;;;12.60
15607;BMP180;7865;50.918;4.510;2022-12-29T11:19:45;99956.00;;;12.70
15607;BMP180;7865;50.918;4.510;2022-12-29T11:24:49;99968.00;;;12.40
15607;BMP180;7865;50.918;4.510;2022-12-29T11:29:53;99960.00;;;12.70
15607;BMP180;7865;50.918;4.510;2022-12-29T11:34:57;99977.00;;;13.10
15607;BMP180;7865;50.918;4.510;2022-12-29T11:40:02;99998.00;;;12.50
15607;BMP180;7865;50.918;4.510;2022-12-29T11:45:27;100010.00;;;11.40
15607;BMP180;7865;50.918;4.510;2022-12-29T11:50:32;100018.00;;;10.60
15607;BMP180;7865;50.918;4.510;2022-12-29T11:55:34;100021.00;;;10.50
15607;BMP180;7865;50.918;4.510;2022-12-29T12:00:38;100028.00;;;10.50
15607;BMP180;7865;50.918;4.510;2022-12-29T12:05:47;100012.00;;;10.10
15607;BMP180;7865;50.918;4.510;2022-12-29T12:11:13;100009.00;;;10.10
15607;BMP180;7865;50.918;4.510;2022-12-29T12:16:19;100001.00;;;10.20
15607;BMP180;7865;50.918;4.510;2022-12-29T12:21:39;100010.00;;;10.20
15607;BMP180;7865;50.918;4.510;2022-12-29T12:32:15;100025.00;;;10.30
15607;BMP180;7865;50.918;4.510;2022-12-29T12:37:40;100030.00;;;10.30
15607;BMP180;7865;50.918;4.510;2022-12-29T13:15:44;100015.00;;;10.00
15607;BMP180;7865;50.918;4.510;2022-12-29T13:20:34;100030.00;;;9.90
15607;BMP180;7865;50.918;4.510;2022-12-29T13:36:22;100039.00;;;11.30
15607;BMP180;7865;50.918;4.510;2022-12-29T13:41:39;100023.00;;;11.60
15607;BMP180;7865;50.918;4.510;2022-12-29T13:46:44;100042.00;;;11.50
15607;BMP180;7865;50.918;4.510;2022-12-29T13:51:54;100053.00;;;11.40
15607;BMP180;7865;50.918;4.510;2022-12-29T13:57:31;100029.00;;;11.00
15607;BMP180;7865;50.918;4.510;2022-12-29T14:02:46;100042.00;;;10.70
15607;BMP180;7865;50.918;4.510;2022-12-29T14:08:04;100036.00;;;10.40
15607;BMP180;7865;50.918;4.510;2022-12-29T14:13:16;100037.00;;;10.40
15607;BMP180;7865;50.918;4.510;2022-12-29T14:18:21;100043.00;;;10.40
15607;BMP180;7865;50.918;4.510;2022-12-29T14:28:37;100053.00;;;10.50
15607;BMP180;7865;50.918;4.510;2022-12-29T14:33:40;100057.00;;;10.30
15607;BMP180;7865;50.918;4.510;2022-12-29T14:38:47;100078.00;;;10.10
15607;BMP180;7865;50.918;4.510;2022-12-29T14:43:55;100090.00;;;9.60
15607;BMP180;7865;50.918;4.510;2022-12-29T14:48:59;100101.00;;;8.60
15607;BMP180;7865;50.918;4.510;2022-12-29T14:59:34;100109.00;;;7.90
15607;BMP180;7865;50.918;4.510;2022-12-29T15:04:38;100118.00;;;7.70
15607;BMP180;7865;50.918;4.510;2022-12-29T15:10:08;100119.00;;;7.60
15607;BMP180;7865;50.918;4.510;2022-12-29T15:15:26;100137.00;;;7.50
15607;BMP180;7865;50.918;4.510;2022-12-29T15:20:30;100146.00;;;7.40
15607;BMP180;7865;50.918;4.510;2022-12-29T15:25:32;100155.00;;;7.30
15607;BMP180;7865;50.918;4.510;2022-12-29T15:30:34;100151.00;;;7.30
15607;BMP180;7865;50.918;4.510;2022-12-29T15:35:37;100142.00;;;7.20
15607;BMP180;7865;50.918;4.510;2022-12-29T15:40:39;100123.00;;;7.10
15607;BMP180;7865;50.918;4.510;2022-12-29T15:45:41;100129.00;;;7.00
15607;BMP180;7865;50.918;4.510;2022-12-29T15:50:43;100128.00;;;7.00
15607;BMP180;7865;50.918;4.510;2022-12-29T15:55:46;100153.00;;;7.00
15607;BMP180;7865;50.918;4.510;2022-12-29T16:00:52;100156.00;;;7.10
15607;BMP180;7865;50.918;4.510;2022-12-29T16:06:27;100180.00;;;7.20
15607;BMP180;7865;50.918;4.510;2022-12-29T16:11:40;100194.00;;;7.20
15607;BMP180;7865;50.918;4.510;2022-12-29T16:16:44;100196.00;;;7.20
15607;BMP180;7865;50.918;4.510;2022-12-29T16:21:47;100195.00;;;7.00
15607;BMP180;7865;50.918;4.510;2022-12-29T16:26:59;100203.00;;;6.90
15607;BMP180;7865;50.918;4.510;2022-12-29T16:32:24;100203.00;;;6.80
15607;BMP180;7865;50.918;4.510;2022-12-29T16:37:31;100197.00;;;6.80
15607;BMP180;7865;50.918;4.510;2022-12-29T16:53:31;100201.00;;;6.80
15607;BMP180;7865;50.918;4.510;2022-12-29T16:58:34;100208.00;;;6.80
15607;BMP180;7865;50.918;4.510;2022-12-29T17:03:44;100212.00;;;6.80
15607;BMP180;7865;50.918;4.510;2022-12-29T17:08:47;100208.00;;;6.80
15607;BMP180;7865;50.918;4.510;2022-12-29T17:13:49;100227.00;;;6.80
15607;BMP180;7865;50.918;4.510;2022-12-29T17:18:51;100222.00;;;6.80
15607;BMP180;7865;50.918;4.510;2022-12-29T17:23:53;100233.00;;;6.90
15607;BMP180;7865;50.918;4.510;2022-12-29T17:28:55;100244.00;;;7.00
15607;BMP180;7865;50.918;4.510;2022-12-29T17:33:57;100258.00;;;7.00
15607;BMP180;7865;50.918;4.510;2022-12-29T17:39:00;100257.00;;;7.00
15607;BMP180;7865;50.918;4.510;2022-12-29T17:44:04;100254.00;;;6.90
15607;BMP180;7865;50.918;4.510;2022-12-29T17:49:11;100268.00;;;6.90
15607;BMP180;7865;50.918;4.510;2022-12-29T17:54:18;100262.00;;;6.80
15607;BMP180;7865;50.918;4.510;2022-12-29T17:59:20;100262.00;;;6.80
15607;BMP180;7865;50.918;4.510;2022-12-29T18:04:22;100264.00;;;6.80
15607;BMP180;7865;50.918;4.510;2022-12-29T18:09:24;100275.00;;;6.80
15607;BMP180;7865;50.918;4.510;2022-12-29T18:14:30;100279.00;;;6.80
15607;BMP180;7865;50.918;4.510;2022-12-29T18:19:31;100275.00;;;6.80
15607;BMP180;7865;50.918;4.510;2022-12-29T18:24:40;100284.00;;;6.80
15607;BMP180;7865;50.918;4.510;2022-12-29T18:29:42;100288.00;;;6.80
15607;BMP180;7865;50.918;4.510;2022-12-29T18:34:44;100288.00;;;6.80
15607;BMP180;7865;50.918;4.510;2022-12-29T18:39:46;100294.00;;;6.90
15607;BMP180;7865;50.918;4.510;2022-12-29T18:44:48;100304.00;;;6.90
15607;BMP180;7865;50.918;4.510;2022-12-29T18:49:51;100308.00;;;7.00
15607;BMP180;7865;50.918;4.510;2022-12-29T18:54:55;100318.00;;;7.00
15607;BMP180;7865;50.918;4.510;2022-12-29T18:59:57;100332.00;;;7.00
15607;BMP180;7865;50.918;4.510;2022-12-29T19:04:59;100321.00;;;6.90
15607;BMP180;7865;50.918;4.510;2022-12-29T19:10:08;100324.00;;;6.90
15607;BMP180;7865;50.918;4.510;2022-12-29T19:15:32;100330.00;;;6.80
15607;BMP180;7865;50.918;4.510;2022-12-29T19:20:38;100346.00;;;6.80
15607;BMP180;7865;50.918;4.510;2022-12-29T19:25:41;100343.00;;;6.70
15607;BMP180;7865;50.918;4.510;2022-12-29T19:30:43;100348.00;;;6.70
15607;BMP180;7865;50.918;4.510;2022-12-29T19:35:57;100342.00;;;6.70
15607;BMP180;7865;50.918;4.510;2022-12-29T19:41:00;100339.00;;;6.70
15607;BMP180;7865;50.918;4.510;2022-12-29T19:46:09;100333.00;;;6.70
15607;BMP180;7865;50.918;4.510;2022-12-29T19:51:13;100340.00;;;6.70
15607;BMP180;7865;50.918;4.510;2022-12-29T19:56:19;100351.00;;;6.70
15607;BMP180;7865;50.918;4.510;2022-12-29T20:01:21;100349.00;;;6.70
15607;BMP180;7865;50.918;4.510;2022-12-29T20:06:24;100359.00;;;6.80
15607;BMP180;7865;50.918;4.510;2022-12-29T20:11:25;100356.00;;;6.90
15607;BMP180;7865;50.918;4.510;2022-12-29T20:16:27;100367.00;;;6.80
15607;BMP180;7865;50.918;4.510;2022-12-29T20:21:30;100378.00;;;6.80
15607;BMP180;7865;50.918;4.510;2022-12-29T20:26:32;100370.00;;;6.70
15607;BMP180;7865;50.918;4.510;2022-12-29T20:31:36;100365.00;;;6.70
15607;BMP180;7865;50.918;4.510;2022-12-29T20:36:42;100355.00;;;6.70
15607;BMP180;7865;50.918;4.510;2022-12-29T20:41:45;100365.00;;;6.80
15607;BMP180;7865;50.918;4.510;2022-12-29T20:46:48;100367.00;;;6.80
15607;BMP180;7865;50.918;4.510;2022-12-29T20:51:50;100365.00;;;6.80
15607;BMP180;7865;50.918;4.510;2022-12-29T20:57:07;100370.00;;;6.70
15607;BMP180;7865;50.918;4.510;2022-12-29T21:02:20;100379.00;;;6.80
15607;BMP180;7865;50.918;4.510;2022-12-29T21:07:23;100404.00;;;6.70
15607;BMP180;7865;50.918;4.510;2022-12-29T21:12:25;100408.00;;;6.70
15607;BMP180;7865;50.918;4.510;2022-12-29T21:17:27;100411.00;;;6.60
15607;BMP180;7865;50.918;4.510;2022-12-29T21:22:29;100395.00;;;6.50
15607;BMP180;7865;50.918;4.510;2022-12-29T21:27:31;100408.00;;;6.60
15607;BMP180;7865;50.918;4.510;2022-12-29T21:32:33;100402.00;;;6.50
15607;BMP180;7865;50.918;4.510;2022-12-29T21:37:36;100410.00;;;6.50
15607;BMP180;7865;50.918;4.510;2022-12-29T21:42:39;100414.00;;;6.50
15607;BMP180;7865;50.918;4.510;2022-12-29T21:47:41;100408.00;;;6.50
15607;BMP180;7865;50.918;4.510;2022-12-29T21:53:01;100411.00;;;6.50
15607;BMP180;7865;50.918;4.510;2022-12-29T21:58:03;100428.00;;;6.40
15607;BMP180;7865;50.918;4.510;2022-12-29T22:03:23;100446.00;;;6.30
15607;BMP180;7865;50.918;4.510;2022-12-29T22:08:44;100449.00;;;6.20
15607;BMP180;7865;50.918;4.510;2022-12-29T22:14:04;100451.00;;;6.10
15607;BMP180;7865;50.918;4.510;2022-12-29T22:19:07;100461.00;;;6.10
15607;BMP180;7865;50.918;4.510;2022-12-29T22:24:11;100460.00;;;6.10
15607;BMP180;7865;50.918;4.510;2022-12-29T22:29:14;100462.00;;;6.20
15607;BMP180;7865;50.918;4.510;2022-12-29T22:34:15;100476.00;;;6.20
15607;BMP180;7865;50.918;4.510;2022-12-29T22:39:17;100479.00;;;6.20
15607;BMP180;7865;50.918;4.510;2022-12-29T22:44:19;100497.00;;;6.20
15607;BMP180;7865;50.918;4.510;2022-12-29T22:49:21;100488.00;;;6.10
15607;BMP180;7865;50.918;4.510;2022-12-29T22:54:23;100494.00;;;6.00
15607;BMP180;7865;50.918;4.510;2022-12-29T22:59:25;100493.00;;;6.00
15607;BMP180;7865;50.918;4.510;2022-12-29T23:04:28;100488.00;;;6.00
15607;BMP180;7865;50.918;4.510;2022-12-29T23:09:50;100489.00;;;6.10
15607;BMP180;7865;50.918;4.510;2022-12-29T23:14:52;100511.00;;;6.10
15607;BMP180;7865;50.918;4.510;2022-12-29T23:19:54;100502.00;;;6.20
15607;BMP180;7865;50.918;4.510;2022-12-29T23:24:56;100502.00;;;6.10
15607;BMP180;7865;50.918;4.510;2022-12-29T23:29:58;100493.00;;;6.20
15607;BMP180;7865;50.918;4.510;2022-12-29T23:35:00;100485.00;;;6.20
15607;BMP180;7865;50.918;4.510;2022-12-29T23:40:02;100482.00;;;6.30
15607;BMP180;7865;50.918;4.510;2022-12-29T23:45:05;100493.00;;;6.30
15607;BMP180;7865;50.918;4.510;2022-12-29T23:50:07;100495.00;;;6.20
15607;BMP180;7865;50.918;4.510;2022-12-29T23:55:09;100508.00;;;6.20
